Time;durP1;ratioP1;P1;durP2;ratioP2;P2;SDS_P1;SDS_P2;PMS_P1;PMS_P2;Temp;Humidity;BMP_temperature;BMP_pressure;BME280_temperature;BME280_humidity;BME280_pressure;Samples;Min_cycle;Max_cycle;Signal;HPM_P1;HPM_P2
2022/10/04 00:01:48;;;;;;;3.45;1.30;;;12.60;92.60;;;;;;4918916;29;20119;-77
2022/10/04 00:04:33;;;;;;;4.88;0.95;;;12.60;92.50;;;;;;4917578;29;20048;-78
2022/10/04 00:07:22;;;;;;;3.85;1.13;;;12.60;92.60;;;;;;4934482;29;20103;-77
2022/10/04 00:09:51;;;;;;;2.35;0.90;;;12.60;92.60;;;;;;4903991;29;20047;-77
2022/10/04 00:12:24;;;;;;;2.50;1.20;;;12.50;92.70;;;;;;4918413;29;20400;-76
2022/10/04 00:14:57;;;;;;;4.28;1.10;;;12.50;92.60;;;;;;4918515;29;20055;-77
2022/10/04 00:17:26;;;;;;;4.68;1.20;;;12.50;92.60;;;;;;4918527;29;20384;-78
2022/10/04 00:19:54;;;;;;;5.60;1.27;;;12.50;92.60;;;;;;4928502;29;20506;-76
2022/10/04 00:22:30;;;;;;;2.08;0.88;;;12.50;92.60;;;;;;4918351;29;20056;-77
2022/10/04 00:25:08;;;;;;;5.13;1.33;;;12.60;92.60;;;;;;4905510;29;20044;-77
2022/10/04 00:27:37;;;;;;;2.22;0.90;;;12.60;92.60;;;;;;4912820;29;20044;-76
2022/10/04 00:30:04;;;;;;;3.00;1.15;;;12.60;92.70;;;;;;4913327;29;20048;-77
2022/10/04 00:32:46;;;;;;;3.65;1.15;;;12.50;92.60;;;;;;4918473;29;20540;-78
2022/10/04 00:35:28;;;;;;;4.32;0.88;;;12.60;92.60;;;;;;4915160;29;20058;-78
2022/10/04 00:38:13;;;;;;;2.63;0.80;;;12.60;92.60;;;;;;4935247;29;20047;-77
2022/10/04 00:41:15;;;;;;;4.82;1.08;;;12.60;92.70;;;;;;4925602;29;20118;-77
2022/10/04 00:43:47;;;;;;;1.70;0.80;;;12.50;92.70;;;;;;4906605;29;20139;-77
2022/10/04 00:46:24;;;;;;;1.48;0.70;;;12.50;92.70;;;;;;4918300;29;20080;-77
2022/10/04 00:48:57;;;;;;;3.08;0.85;;;12.50;92.70;;;;;;4922274;29;20070;-78
2022/10/04 00:51:41;;;;;;;2.47;0.93;;;12.50;92.80;;;;;;4927658;29;20055;-77
2022/10/04 00:54:40;;;;;;;3.50;1.40;;;12.40;92.80;;;;;;4934548;29;20102;-77
2022/10/04 00:57:14;;;;;;;6.35;1.30;;;12.40;92.70;;;;;;4917771;29;20067;-77
2022/10/04 00:59:46;;;;;;;2.80;0.80;;;12.40;92.80;;;;;;4917590;29;20040;-77
2022/10/04 01:02:18;;;;;;;3.08;1.02;;;12.40;92.80;;;;;;4930404;29;20043;-77
2022/10/04 01:05:03;;;;;;;1.83;0.70;;;12.30;92.80;;;;;;4902479;29;20834;-78
2022/10/04 01:08:03;;;;;;;3.05;0.80;;;12.30;92.90;;;;;;4918925;29;20059;-77
2022/10/04 01:10:59;;;;;;;2.60;0.80;;;12.30;92.90;;;;;;4909365;29;20143;-78
2022/10/04 01:13:35;;;;;;;2.60;0.75;;;12.30;92.90;;;;;;4896028;29;20048;-77
2022/10/04 01:16:32;;;;;;;4.05;1.02;;;12.30;92.90;;;;;;4938563;29;20397;-76
2022/10/04 01:19:23;;;;;;;2.70;0.63;;;12.40;92.90;;;;;;4921423;29;20499;-77
2022/10/04 01:21:58;;;;;;;2.63;0.77;;;12.40;92.90;;;;;;4910989;29;20067;-77
2022/10/04 01:24:36;;;;;;;3.42;0.68;;;12.40;92.90;;;;;;4921177;29;20079;-77
2022/10/04 01:27:03;;;;;;;1.70;0.75;;;12.40;92.90;;;;;;4938506;29;20518;-78
2022/10/04 01:29:31;;;;;;;2.50;1.00;;;12.40;92.90;;;;;;4921683;29;20044;-78
2022/10/04 01:31:59;;;;;;;1.95;0.98;;;12.30;92.90;;;;;;4938423;29;20039;-77
2022/10/04 01:34:29;;;;;;;2.75;0.70;;;12.30;92.90;;;;;;4921431;29;20043;-77
2022/10/04 01:36:58;;;;;;;3.80;0.95;;;12.30;92.90;;;;;;4921202;29;20056;-77
2022/10/04 01:39:27;;;;;;;4.32;1.27;;;12.30;93.00;;;;;;4905571;29;20044;-77
2022/10/04 01:41:54;;;;;;;2.15;0.80;;;12.30;93.00;;;;;;4938196;29;20050;-78
2022/10/04 01:44:30;;;;;;;1.88;0.80;;;12.30;93.00;;;;;;4938249;29;20124;-77
2022/10/04 01:47:05;;;;;;;4.82;1.05;;;12.20;93.00;;;;;;4905480;29;20048;-78
2022/10/04 01:49:35;;;;;;;1.75;0.85;;;12.20;93.00;;;;;;4920904;29;20063;-77
2022/10/04 01:52:14;;;;;;;2.00;0.73;;;12.20;93.10;;;;;;4921205;29;20126;-76
2022/10/04 01:54:45;;;;;;;3.25;0.80;;;12.20;93.20;;;;;;4920745;29;20122;-78
2022/10/04 01:57:17;;;;;;;5.00;1.00;;;12.10;93.20;;;;;;4937873;29;20043;-77
2022/10/04 02:00:07;;;;;;;3.17;0.90;;;12.10;93.20;;;;;;4921032;29;20131;-78
2022/10/04 02:02:56;;;;;;;3.80;0.98;;;12.10;93.20;;;;;;4937947;29;20071;-77
2022/10/04 02:05:32;;;;;;;3.58;0.85;;;12.00;93.20;;;;;;4905130;29;20095;-78
2022/10/04 02:08:10;;;;;;;2.33;0.75;;;12.00;93.30;;;;;;4920808;29;20111;-77
2022/10/04 02:10:39;;;;;;;3.10;1.00;;;12.00;93.30;;;;;;4905098;29;20047;-77
2022/10/04 02:13:17;;;;;;;2.42;0.90;;;12.00;93.30;;;;;;4920400;29;20138;-78
2022/10/04 02:15:46;;;;;;;5.13;0.80;;;12.10;93.30;;;;;;4932465;29;20051;-79
2022/10/04 02:18:22;;;;;;;2.15;0.75;;;12.00;93.30;;;;;;4937099;29;20043;-77
2022/10/04 02:20:50;;;;;;;3.30;1.17;;;12.10;93.30;;;;;;4920643;29;20036;-77
2022/10/04 02:23:20;;;;;;;2.35;0.68;;;12.10;93.30;;;;;;4920468;29;20131;-77
2022/10/04 02:25:47;;;;;;;1.80;0.70;;;12.10;93.30;;;;;;4920303;29;20044;-77
2022/10/04 02:28:15;;;;;;;1.95;0.82;;;12.00;93.30;;;;;;4904429;29;20051;-77
2022/10/04 02:33:42;;;;;;;3.28;0.80;;;12.00;93.30;;;;;;4897870;29;20055;-76
2022/10/04 02:36:10;;;;;;;3.53;0.88;;;12.00;93.30;;;;;;4920211;29;20036;-77
2022/10/04 02:39:09;;;;;;;1.60;0.63;;;12.00;93.40;;;;;;4937201;29;20047;-77
2022/10/04 02:41:56;;;;;;;1.80;0.60;;;12.00;93.40;;;;;;4937184;29;20044;-78
2022/10/04 02:44:32;;;;;;;3.00;0.75;;;11.90;93.40;;;;;;4920201;29;20043;-77
2022/10/04 02:47:15;;;;;;;1.77;0.88;;;11.90;93.50;;;;;;4904313;29;20047;-76
2022/10/04 02:49:52;;;;;;;2.25;0.60;;;11.80;93.50;;;;;;4931682;28;20155;-75
2022/10/04 02:52:30;;;;;;;1.83;0.70;;;11.80;93.50;;;;;;4926166;29;20459;-75
2022/10/04 02:55:05;;;;;;;2.97;0.93;;;11.80;93.60;;;;;;4935418;29;20051;-74
2022/10/04 02:57:35;;;;;;;3.67;0.73;;;11.70;93.50;;;;;;4935233;29;20050;-75
2022/10/04 03:00:13;;;;;;;3.85;0.55;;;11.70;93.60;;;;;;4919704;29;20572;-75
2022/10/04 03:02:40;;;;;;;2.05;0.73;;;11.70;93.60;;;;;;4935468;29;20044;-76
2022/10/04 03:05:10;;;;;;;1.73;0.68;;;11.60;93.60;;;;;;4936661;29;20131;-75
2022/10/04 03:07:38;;;;;;;1.40;0.55;;;11.60;93.60;;;;;;4935253;29;20543;-76
2022/10/04 03:10:11;;;;;;;2.95;0.60;;;11.60;93.70;;;;;;4919711;29;20047;-76
2022/10/04 03:12:39;;;;;;;2.05;0.88;;;11.60;93.70;;;;;;4919583;29;20389;-76
2022/10/04 03:15:09;;;;;;;2.65;0.88;;;11.50;93.70;;;;;;4936220;29;20043;-75
2022/10/04 03:17:39;;;;;;;2.03;0.68;;;11.50;93.60;;;;;;4935962;29;20791;-76
2022/10/04 03:20:10;;;;;;;2.78;0.70;;;11.50;93.70;;;;;;4935950;29;20122;-75
2022/10/04 03:22:38;;;;;;;2.45;0.70;;;11.50;93.70;;;;;;4935487;29;20091;-75
2022/10/04 03:25:28;;;;;;;3.83;1.15;;;11.50;93.70;;;;;;4934841;29;20047;-75
2022/10/04 03:28:00;;;;;;;2.08;0.68;;;11.40;93.80;;;;;;4931999;29;20085;-75
2022/10/04 03:30:30;;;;;;;2.15;0.47;;;11.40;93.80;;;;;;4935269;29;20448;-75
2022/10/04 03:32:58;;;;;;;1.75;0.80;;;11.40;93.80;;;;;;4935066;29;20094;-76
2022/10/04 03:35:33;;;;;;;2.17;0.80;;;11.30;93.80;;;;;;4919396;29;20047;-76
2022/10/04 03:38:05;;;;;;;2.63;0.70;;;11.30;93.80;;;;;;4934680;29;20043;-76
2022/10/04 03:40:33;;;;;;;1.00;0.55;;;11.30;93.90;;;;;;4936181;29;20090;-75
2022/10/04 03:43:02;;;;;;;2.67;0.80;;;11.20;93.90;;;;;;4934884;29;20047;-76
2022/10/04 03:45:32;;;;;;;1.98;0.60;;;11.20;94.00;;;;;;4919336;29;20385;-75
2022/10/04 03:48:04;;;;;;;2.95;0.68;;;11.10;94.00;;;;;;4934643;29;20051;-75
2022/10/04 03:50:39;;;;;;;2.08;0.68;;;11.10;94.00;;;;;;4923393;29;20118;-77
2022/10/04 03:53:14;;;;;;;2.15;0.63;;;11.10;94.10;;;;;;4935857;29;20122;-77
2022/10/04 03:55:44;;;;;;;1.83;0.68;;;11.00;94.00;;;;;;4918617;29;20508;-78
2022/10/04 03:58:15;;;;;;;2.33;0.75;;;11.00;94.10;;;;;;4918760;29;20058;-78
2022/10/04 04:00:55;;;;;;;2.75;0.75;;;10.90;94.10;;;;;;4918853;29;20054;-76
2022/10/04 04:03:27;;;;;;;2.25;0.70;;;10.90;94.10;;;;;;4911565;29;20062;-77
2022/10/04 04:05:58;;;;;;;1.73;0.43;;;10.80;94.10;;;;;;4935819;29;20127;-77
2022/10/04 04:08:25;;;;;;;2.40;0.80;;;10.80;94.20;;;;;;4918887;29;20051;-77
2022/10/04 04:10:56;;;;;;;1.13;0.57;;;10.70;94.20;;;;;;4934534;29;20052;-75
2022/10/04 04:13:28;;;;;;;1.67;0.75;;;10.70;94.20;;;;;;4933656;29;20472;-76
2022/10/04 04:15:59;;;;;;;2.33;0.47;;;10.60;94.20;;;;;;4918370;29;20146;-76
2022/10/04 04:18:32;;;;;;;2.05;0.73;;;10.60;94.20;;;;;;4918268;29;20054;-76
2022/10/04 04:21:02;;;;;;;2.50;0.75;;;10.60;94.30;;;;;;4935389;29;20555;-75
2022/10/04 04:23:33;;;;;;;1.90;0.65;;;10.50;94.20;;;;;;4902060;29;20406;-74
2022/10/04 04:26:22;;;;;;;0.90;0.60;;;10.50;94.30;;;;;;4918222;29;20051;-75
2022/10/04 04:29:24;;;;;;;3.00;0.60;;;10.50;94.30;;;;;;4912084;29;20085;-75
2022/10/04 04:31:56;;;;;;;0.90;0.50;;;10.40;94.30;;;;;;4930417;29;20412;-75
2022/10/04 04:34:28;;;;;;;2.30;0.60;;;10.40;94.30;;;;;;4918078;29;20468;-75
2022/10/04 04:37:01;;;;;;;0.98;0.50;;;10.40;94.30;;;;;;4928006;29;20767;-76
2022/10/04 04:39:33;;;;;;;2.50;0.65;;;10.30;94.30;;;;;;4917512;29;20044;-76
2022/10/04 04:42:05;;;;;;;2.10;0.73;;;10.30;94.30;;;;;;4936763;29;20341;-75
2022/10/04 04:44:32;;;;;;;;;;;10.30;94.30;;;;;;4933369;29;20079;-75
2022/10/04 04:46:59;;;;;;;1.33;0.40;;;10.20;94.40;;;;;;4921649;29;20013;-75
2022/10/04 04:49:30;;;;;;;1.13;0.43;;;10.10;94.40;;;;;;4921283;29;20060;-75
2022/10/04 04:51:58;;;;;;;1.77;0.70;;;10.10;94.40;;;;;;4917791;29;20052;-75
2022/10/04 04:54:26;;;;;;;0.68;0.40;;;10.10;94.40;;;;;;4913929;29;20051;-76
2022/10/04 04:56:56;;;;;;;2.42;0.60;;;10.10;94.40;;;;;;4906431;29;20456;-77
2022/10/04 04:59:26;;;;;;;2.88;0.60;;;10.10;94.40;;;;;;4906318;29;20058;-78
2022/10/04 05:01:53;;;;;;;2.63;0.73;;;10.00;94.40;;;;;;4899883;29;20062;-78
2022/10/04 05:04:22;;;;;;;2.53;0.77;;;10.00;94.40;;;;;;4921351;29;20135;-76
2022/10/04 05:07:14;;;;;;;2.08;0.77;;;10.00;94.40;;;;;;4936662;29;20070;-77
2022/10/04 05:09:41;;;;;;;1.75;0.75;;;10.00;94.40;;;;;;4936328;29;20054;-78
2022/10/04 05:12:14;;;;;;;2.00;0.73;;;10.00;94.50;;;;;;4921908;29;20040;-77
2022/10/04 05:14:46;;;;;;;1.70;0.70;;;9.90;94.40;;;;;;4921497;29;20044;-77
2022/10/04 05:17:23;;;;;;;;;;;9.90;94.40;;;;;;4933695;29;20122;-77
2022/10/04 05:19:55;;;;;;;1.25;0.55;;;9.90;94.50;;;;;;4936902;29;20005;-77
2022/10/04 05:22:24;;;;;;;1.73;0.82;;;9.90;94.50;;;;;;4938401;29;20043;-76
2022/10/04 05:25:01;;;;;;;2.80;0.88;;;9.90;94.40;;;;;;4921572;29;20126;-78
2022/10/04 05:27:41;;;;;;;2.30;0.55;;;9.90;94.40;;;;;;4909283;29;20075;-79
2022/10/04 05:30:29;;;;;;;1.88;0.73;;;9.90;94.40;;;;;;4924689;29;20039;-79
2022/10/04 05:33:10;;;;;;;2.72;0.90;;;9.90;94.40;;;;;;4905594;29;20043;-79
2022/10/04 05:36:01;;;;;;;1.90;0.80;;;9.90;94.40;;;;;;4921364;29;20147;-79
2022/10/04 05:38:45;;;;;;;1.08;0.60;;;9.90;94.30;;;;;;4898344;29;20123;-80
2022/10/04 05:41:27;;;;;;;2.67;0.80;;;9.90;94.30;;;;;;4921050;29;20047;-79
2022/10/04 05:44:01;;;;;;;1.95;0.80;;;9.90;94.30;;;;;;4928962;29;20087;-77
2022/10/04 05:46:33;;;;;;;1.63;0.77;;;9.80;94.30;;;;;;4920415;29;20043;-78
2022/10/04 05:49:11;;;;;;;2.17;1.02;;;9.80;94.30;;;;;;4931733;29;20063;-79
2022/10/04 05:52:02;;;;;;;2.20;0.77;;;9.80;94.30;;;;;;4933083;29;20505;-78
2022/10/04 05:54:34;;;;;;;3.28;1.25;;;9.80;94.30;;;;;;4919585;29;20095;-79
2022/10/04 05:57:30;;;;;;;4.88;1.00;;;9.80;94.30;;;;;;4937589;29;20054;-78
2022/10/04 06:00:11;;;;;;;4.78;1.08;;;9.80;94.30;;;;;;4896034;29;20051;-78
2022/10/04 06:03:06;;;;;;;1.63;0.98;;;9.90;94.30;;;;;;4938291;29;20048;-78
2022/10/04 06:05:42;;;;;;;2.97;0.95;;;9.90;94.30;;;;;;4915444;29;20488;-78
2022/10/04 06:08:34;;;;;;;2.75;0.95;;;9.80;94.20;;;;;;4904914;29;20051;-78
2022/10/04 06:11:22;;;;;;;2.53;1.25;;;9.90;94.20;;;;;;4920335;29;20055;-77
2022/10/04 06:14:13;;;;;;;2.22;1.10;;;9.90;94.20;;;;;;4936363;29;20083;-79
2022/10/04 06:16:52;;;;;;;3.80;0.80;;;9.90;94.20;;;;;;4925062;29;20086;-79
2022/10/04 06:19:48;;;;;;;2.58;1.10;;;9.90;94.20;;;;;;4920339;29;20047;-78
2022/10/04 06:22:19;;;;;;;1.60;0.70;;;9.90;94.20;;;;;;4920565;29;20044;-78
2022/10/04 06:24:53;;;;;;;2.03;1.00;;;9.90;94.20;;;;;;4920391;29;20075;-77
2022/10/04 06:27:39;;;;;;;2.22;0.93;;;9.90;94.20;;;;;;4920337;29;20102;-77
2022/10/04 06:30:13;;;;;;;1.80;0.85;;;10.00;94.20;;;;;;4924597;29;20051;-78
2022/10/04 06:33:12;;;;;;;2.08;0.90;;;10.00;94.20;;;;;;4920580;29;20432;-79
2022/10/04 06:35:48;;;;;;;2.58;1.00;;;10.00;94.20;;;;;;4911165;29;20043;-79
2022/10/04 06:38:45;;;;;;;2.70;1.20;;;10.00;94.20;;;;;;4920053;29;20054;-78
2022/10/04 06:41:23;;;;;;;1.90;1.08;;;10.10;94.10;;;;;;4931396;29;20051;-78
2022/10/04 06:43:53;;;;;;;2.58;1.15;;;10.10;94.10;;;;;;4892789;29;20484;-78
2022/10/04 06:46:20;;;;;;;2.63;0.80;;;10.10;94.00;;;;;;4920160;29;20404;-78
2022/10/04 06:48:59;;;;;;;2.58;1.30;;;10.10;94.00;;;;;;4920077;29;20074;-79
2022/10/04 06:51:48;;;;;;;2.45;1.23;;;10.20;94.00;;;;;;4919624;29;20091;-78
2022/10/04 06:54:18;;;;;;;2.70;1.25;;;10.20;94.00;;;;;;4917995;29;20130;-77
2022/10/04 06:57:04;;;;;;;3.53;1.10;;;10.20;94.00;;;;;;4935778;29;20089;-78
2022/10/04 06:59:47;;;;;;;2.45;1.15;;;10.20;94.00;;;;;;4934405;29;20044;-77
2022/10/04 07:02:37;;;;;;;5.32;1.55;;;10.20;94.30;;;;;;4934675;29;20134;-78
2022/10/04 07:05:11;;;;;;;3.10;1.25;;;10.20;94.10;;;;;;4925961;29;20052;-79
2022/10/04 07:07:46;;;;;;;3.35;1.17;;;10.20;94.10;;;;;;4933441;29;20048;-77
2022/10/04 07:10:30;;;;;;;4.47;1.42;;;10.20;94.10;;;;;;4936963;29;20496;-78
2022/10/04 07:13:03;;;;;;;3.63;1.25;;;10.20;94.10;;;;;;4916544;29;20044;-78
2022/10/04 07:15:49;;;;;;;4.10;1.48;;;10.20;94.10;;;;;;4919632;29;20518;-78
2022/10/04 07:18:27;;;;;;;2.28;1.17;;;10.30;94.10;;;;;;4935504;29;20074;-78
2022/10/04 07:21:15;;;;;;;3.22;1.45;;;10.30;94.10;;;;;;4935663;29;20074;-79
2022/10/04 07:23:47;;;;;;;5.22;1.83;;;10.30;94.00;;;;;;4919939;29;20114;-79
2022/10/04 07:26:36;;;;;;;2.55;1.52;;;10.40;94.00;;;;;;4936595;29;20072;-79
2022/10/04 07:29:20;;;;;;;3.42;1.52;;;10.40;94.00;;;;;;4945108;29;20130;-80
2022/10/04 07:32:10;;;;;;;4.90;1.50;;;10.50;94.00;;;;;;4939193;29;20591;-77
2022/10/04 07:35:03;;;;;;;3.75;1.85;;;10.60;94.00;;;;;;4934900;29;20047;-78
2022/10/04 07:37:43;;;;;;;3.35;1.30;;;10.70;93.90;;;;;;4935156;29;20055;-79
2022/10/04 07:40:21;;;;;;;2.70;1.08;;;10.80;93.80;;;;;;4934918;29;20130;-79
2022/10/04 07:42:53;;;;;;;3.63;1.42;;;10.80;93.70;;;;;;4934848;29;20476;-77
2022/10/04 07:45:25;;;;;;;4.18;1.90;;;10.90;93.70;;;;;;4928230;29;20075;-78
2022/10/04 07:48:14;;;;;;;3.83;1.95;;;11.00;93.70;;;;;;4934948;29;20075;-79
2022/10/04 07:51:12;;;;;;;7.25;2.03;;;11.10;93.60;;;;;;4923328;29;20052;-78
2022/10/04 07:53:54;;;;;;;3.33;1.85;;;11.20;93.50;;;;;;4904241;29;20048;-78
2022/10/04 07:56:35;;;;;;;3.83;2.15;;;11.30;93.50;;;;;;4916082;29;20555;-79
2022/10/04 07:59:04;;;;;;;4.32;1.90;;;11.40;93.40;;;;;;4931582;29;20099;-79
2022/10/04 08:02:02;;;;;;;5.10;3.05;;;11.50;93.30;;;;;;4934846;29;20514;-79
2022/10/04 08:04:48;;;;;;;5.60;2.67;;;11.60;93.30;;;;;;4919062;29;20488;-78
2022/10/04 08:07:18;;;;;;;4.03;2.03;;;11.60;93.30;;;;;;4918762;29;20077;-79
2022/10/04 08:10:30;;;;;;;6.65;2.38;;;11.70;93.30;;;;;;4918838;29;20063;-79
2022/10/04 08:13:24;;;;;;;5.47;2.30;;;11.80;93.20;;;;;;4913821;29;20559;-78
2022/10/04 08:15:51;;;;;;;3.65;1.90;;;11.80;93.20;;;;;;4934301;29;20303;-79
2022/10/04 08:18:55;;;;;;;4.78;2.42;;;11.90;93.10;;;;;;4918627;29;20036;-77
2022/10/04 08:21:31;;;;;;;3.30;2.08;;;12.00;93.10;;;;;;4948085;29;20108;-79
2022/10/04 08:24:42;;;;;;;4.57;2.63;;;12.10;93.00;;;;;;4934689;29;20044;-79
2022/10/04 08:27:21;;;;;;;7.28;2.83;;;12.20;92.90;;;;;;4909620;29;20048;-77
2022/10/04 08:30:11;;;;;;;5.25;2.65;;;12.30;92.90;;;;;;4934549;29;20047;-79
2022/10/04 08:33:12;;;;;;;6.97;3.25;;;12.40;93.10;;;;;;4919092;29;20107;-79
2022/10/04 08:36:10;;;;;;;7.75;4.10;;;12.50;92.80;;;;;;4925260;29;20134;-78
2022/10/04 08:38:48;;;;;;;8.13;4.47;;;12.60;92.70;;;;;;4945870;29;20047;-79
2022/10/04 08:41:42;;;;;;;5.38;3.03;;;12.70;92.60;;;;;;4950586;29;20441;-79
2022/10/04 08:44:31;;;;;;;6.10;3.00;;;12.70;92.50;;;;;;4934352;29;20052;-78
2022/10/04 08:47:09;;;;;;;10.45;3.97;;;12.80;92.50;;;;;;4934126;29;20483;-79
2022/10/04 08:49:56;;;;;;;7.30;3.60;;;12.80;92.40;;;;;;4934344;29;20059;-77
2022/10/04 08:52:38;;;;;;;6.20;3.33;;;12.90;92.40;;;;;;4907295;29;20503;-78
2022/10/04 08:55:49;;;;;;;7.57;4.38;;;12.90;92.40;;;;;;4915035;29;20071;-77
2022/10/04 08:58:44;;;;;;;5.85;3.00;;;13.00;92.30;;;;;;4909523;29;20127;-77
2022/10/04 09:01:48;;;;;;;4.95;2.75;;;13.10;92.30;;;;;;4921323;29;20134;-79
2022/10/04 09:04:28;;;;;;;7.88;4.22;;;13.10;92.20;;;;;;4918361;29;20044;-79
2022/10/04 09:07:35;;;;;;;7.13;3.70;;;13.20;92.10;;;;;;4918616;29;20040;-78
2022/10/04 09:10:20;;;;;;;6.60;4.05;;;13.30;92.00;;;;;;4908598;29;20111;-79
2022/10/04 09:13:12;;;;;;;7.20;3.90;;;13.40;91.90;;;;;;4918266;29;20055;-78
2022/10/04 09:15:50;;;;;;;7.68;3.80;;;13.40;91.90;;;;;;4918313;29;20067;-78
2022/10/04 09:18:21;;;;;;;7.75;4.00;;;13.50;91.90;;;;;;4918090;29;20098;-76
2022/10/04 09:21:15;;;;;;;5.07;3.45;;;13.50;91.80;;;;;;4918190;29;20043;-76
2022/10/04 09:23:41;;;;;;;6.32;3.20;;;13.60;91.80;;;;;;4889995;29;20086;-75
2022/10/04 09:26:27;;;;;;;6.68;3.53;;;13.60;91.80;;;;;;4933738;29;20040;-76
2022/10/04 09:29:41;;;;;;;7.30;3.60;;;13.70;91.70;;;;;;4936144;29;20039;-75
2022/10/04 09:32:17;;;;;;;6.80;3.30;;;13.70;91.60;;;;;;4932698;29;20067;-79
2022/10/04 09:35:09;;;;;;;4.40;2.70;;;13.70;91.60;;;;;;4938684;29;20051;-80
2022/10/04 09:38:15;;;;;;;6.25;3.08;;;13.80;91.60;;;;;;4905966;29;20062;-80
2022/10/04 09:41:12;;;;;;;7.30;4.53;;;13.90;91.50;;;;;;4929034;29;20050;-79
2022/10/04 09:44:05;;;;;;;8.35;4.05;;;13.90;91.20;;;;;;4908447;29;20051;-79
2022/10/04 09:47:03;;;;;;;6.82;3.63;;;14.00;91.20;;;;;;4922091;29;20126;-78
2022/10/04 09:50:10;;;;;;;9.60;4.00;;;14.10;91.10;;;;;;4931282;29;20122;-78
2022/10/04 09:52:43;;;;;;;6.28;4.10;;;14.10;91.00;;;;;;4836679;29;20058;-79
2022/10/04 09:55:13;;;;;;;9.35;4.47;;;14.20;90.90;;;;;;4927280;29;20500;-78
2022/10/04 09:58:13;;;;;;;8.63;5.00;;;14.20;90.60;;;;;;4905606;29;20135;-79
2022/10/04 10:01:02;;;;;;;6.68;4.07;;;14.30;90.50;;;;;;4921811;29;20459;-78
2022/10/04 10:03:53;;;;;;;7.68;3.63;;;14.40;90.60;;;;;;4905606;29;20522;-78
2022/10/04 10:06:35;;;;;;;7.82;3.10;;;14.40;90.60;;;;;;4902076;29;20056;-78
2022/10/04 10:09:02;;;;;;;6.55;3.22;;;14.50;90.50;;;;;;4916513;29;20120;-79
2022/10/04 10:15:23;;;;;;;7.65;3.08;;;14.60;90.40;;;;;;4892074;29;20138;-77
2022/10/04 10:17:56;;;;;;;5.45;3.25;;;14.60;90.30;;;;;;4920897;29;20044;-77
2022/10/04 10:20:31;;;;;;;5.97;3.10;;;14.70;90.30;;;;;;4920733;29;20036;-78
2022/10/04 10:23:14;;;;;;;8.65;3.45;;;14.80;90.20;;;;;;4904943;29;20047;-77
2022/10/04 10:26:00;;;;;;;;;;;14.90;90.00;;;;;;4921219;29;20070;-77
2022/10/04 10:28:45;;;;;;;4.70;2.47;;;14.90;90.00;;;;;;4937653;29;19926;-78
2022/10/04 10:31:45;;;;;;;5.57;2.45;;;14.90;90.00;;;;;;4920493;29;20044;-76
2022/10/04 10:34:51;;;;;;;3.72;1.77;;;15.00;89.90;;;;;;4913539;29;20070;-76
2022/10/04 10:38:02;;;;;;;4.88;2.83;;;15.00;90.00;;;;;;4923674;29;20062;-76
2022/10/04 10:40:58;;;;;;;6.75;2.78;;;15.10;89.70;;;;;;4853903;29;20407;-77
2022/10/04 10:43:49;;;;;;;6.68;2.85;;;15.10;89.40;;;;;;4920176;29;20055;-75
2022/10/04 10:46:43;;;;;;;6.30;2.95;;;15.10;89.40;;;;;;4936034;29;20046;-76
2022/10/04 10:49:31;;;;;;;5.25;3.17;;;15.20;89.10;;;;;;4915559;29;20048;-78
2022/10/04 10:52:33;;;;;;;6.13;2.92;;;15.30;88.90;;;;;;4933815;29;20130;-77
2022/10/04 10:55:29;;;;;;;6.82;2.75;;;15.30;88.70;;;;;;4932767;29;20043;-76
2022/10/04 10:58:38;;;;;;;7.18;2.50;;;15.40;88.30;;;;;;4923389;29;20043;-80
2022/10/04 11:01:36;;;;;;;5.97;2.80;;;15.50;88.00;;;;;;4935630;29;20043;-78
2022/10/04 11:04:34;;;;;;;5.03;2.75;;;15.60;87.70;;;;;;4937012;29;20103;-79
2022/10/04 11:07:29;;;;;;;4.63;2.38;;;15.60;87.60;;;;;;4908631;29;20107;-78
2022/10/04 11:10:20;;;;;;;6.72;2.60;;;15.60;87.60;;;;;;4947602;29;20497;-74
2022/10/04 11:13:17;;;;;;;6.90;3.33;;;15.70;87.30;;;;;;4936754;29;20118;-76
2022/10/04 11:15:53;;;;;;;3.70;2.13;;;15.80;87.10;;;;;;4935527;29;20046;-75
2022/10/04 11:18:45;;;;;;;11.02;3.65;;;15.80;86.70;;;;;;4935395;29;20535;-74
2022/10/04 11:21:38;;;;;;;7.05;2.70;;;15.90;85.80;;;;;;4948599;29;20059;-74
2022/10/04 11:24:49;;;;;;;4.30;2.30;;;15.90;86.00;;;;;;4919466;29;20047;-74
2022/10/04 11:27:17;;;;;;;4.72;2.10;;;15.90;86.30;;;;;;4939684;29;20040;-76
2022/10/04 11:29:54;;;;;;;5.97;2.88;;;15.90;86.50;;;;;;4932813;29;20056;-78
2022/10/04 11:35:53;;;;;;;6.75;2.45;;;16.00;85.90;;;;;;4935115;29;20566;-81
2022/10/04 11:42:35;;;;;;;5.88;2.28;;;16.10;85.60;;;;;;4923321;29;20511;-91
2022/10/04 11:45:32;;;;;;;6.82;2.30;;;16.10;85.80;;;;;;4935809;29;20044;-79
2022/10/04 11:48:21;;;;;;;6.55;2.53;;;16.10;85.90;;;;;;4934803;29;20051;-76
2022/10/04 11:51:46;;;;;;;6.20;2.63;;;16.20;85.60;;;;;;4929131;29;20488;-87
2022/10/04 11:58:12;;;;;;;5.45;2.33;;;16.30;85.20;;;;;;4798459;29;20106;-82
2022/10/04 12:01:13;;;;;;;8.98;2.22;;;16.40;84.60;;;;;;4809256;29;20442;-84
2022/10/04 12:04:08;;;;;;;3.78;1.88;;;16.50;84.50;;;;;;4918935;29;20495;-83
2022/10/04 12:07:07;;;;;;;4.32;1.88;;;16.60;84.20;;;;;;4882133;29;20048;-87
2022/10/04 12:10:43;;;;;;;3.00;1.63;;;16.70;83.90;;;;;;4890465;29;20060;-89
2022/10/04 12:18:31;;;;;;;6.85;2.13;;;16.90;82.90;;;;;;4916430;29;20114;-87
2022/10/04 12:21:58;;;;;;;3.92;1.80;;;17.10;82.80;;;;;;4914365;29;20058;-87
2022/10/04 12:29:05;;;;;;;3.03;1.20;;;17.40;81.70;;;;;;4917807;29;20056;-86
2022/10/04 12:36:19;;;;;;;3.88;1.75;;;17.70;81.00;;;;;;4799069;29;20514;-87
2022/10/04 12:39:11;;;;;;;2.95;1.60;;;17.70;81.00;;;;;;4803184;29;20176;-87
2022/10/04 12:42:17;;;;;;;3.30;1.63;;;17.60;80.40;;;;;;4850329;29;20072;-86
2022/10/04 12:44:58;;;;;;;4.13;1.75;;;17.70;80.60;;;;;;4856994;29;20402;-86
2022/10/04 12:47:55;;;;;;;5.60;1.90;;;17.60;80.80;;;;;;4856722;29;20098;-87
2022/10/04 12:50:34;;;;;;;4.00;1.50;;;17.70;80.80;;;;;;4853667;29;20053;-86
2022/10/04 12:54:00;;;;;;;3.88;1.50;;;17.80;81.00;;;;;;4866619;29;20052;-87
2022/10/04 12:57:06;;;;;;;3.08;1.55;;;17.90;80.70;;;;;;4876284;29;20049;-87
2022/10/04 13:00:12;;;;;;;3.42;1.35;;;18.10;80.40;;;;;;4857974;29;20125;-85
2022/10/04 13:02:47;;;;;;;3.95;1.15;;;18.20;80.10;;;;;;4876236;29;20044;-84
2022/10/04 13:05:47;;;;;;;3.33;1.60;;;18.30;79.60;;;;;;4929796;29;20055;-86
2022/10/04 13:08:55;;;;;;;4.05;1.27;;;18.30;79.40;;;;;;4909983;29;20048;-86
2022/10/04 13:12:04;;;;;;;2.78;1.15;;;18.30;79.60;;;;;;4903511;29;20119;-85
2022/10/04 13:14:38;;;;;;;3.70;1.60;;;18.30;79.10;;;;;;4894310;29;20112;-84
2022/10/04 13:17:31;;;;;;;2.97;1.10;;;18.10;79.10;;;;;;4901209;29;20059;-84
2022/10/04 13:20:28;;;;;;;3.97;1.25;;;18.10;79.20;;;;;;4918770;29;20036;-86
2022/10/04 13:23:24;;;;;;;2.33;0.98;;;18.00;79.30;;;;;;4909380;29;20040;-86
2022/10/04 13:26:39;;;;;;;3.33;1.02;;;17.90;79.20;;;;;;4905028;29;20059;-86
2022/10/04 13:29:42;;;;;;;2.40;1.10;;;17.80;79.20;;;;;;4902249;29;20485;-86
2022/10/04 13:33:28;;;;;;;3.47;1.35;;;17.80;79.20;;;;;;4919972;29;20056;-87
2022/10/04 13:36:42;;;;;;;4.88;1.40;;;17.70;78.70;;;;;;4903706;29;20048;-85
2022/10/04 13:40:22;;;;;;;3.45;1.20;;;17.80;77.00;;;;;;4865248;29;20056;-87
2022/10/04 13:43:36;;;;;;;3.97;1.60;;;17.80;76.50;;;;;;4865940;29;20083;-86
2022/10/04 13:47:19;;;;;;;2.72;1.63;;;17.80;76.50;;;;;;4868517;29;20093;-84
2022/10/04 13:50:16;;;;;;;2.75;1.20;;;17.80;75.50;;;;;;4879796;29;20144;-84
2022/10/04 13:59:17;;;;;;;3.08;1.52;;;17.90;76.60;;;;;;4879616;29;20056;-83
2022/10/04 14:02:32;;;;;;;2.20;1.20;;;17.90;76.50;;;;;;4879572;29;20084;-85
2022/10/04 14:05:21;;;;;;;3.17;0.95;;;18.00;76.60;;;;;;4860990;29;20117;-85
2022/10/04 14:08:07;;;;;;;3.38;1.02;;;18.00;76.60;;;;;;4849941;29;20421;-83
2022/10/04 14:10:56;;;;;;;2.63;1.00;;;18.00;76.10;;;;;;4868138;29;20044;-87
2022/10/04 14:13:39;;;;;;;2.75;1.20;;;18.10;76.10;;;;;;4898282;29;20048;-83
2022/10/04 14:16:35;;;;;;;2.03;0.70;;;18.20;75.70;;;;;;4918635;29;20163;-82
2022/10/04 14:19:33;;;;;;;1.92;1.00;;;18.20;75.60;;;;;;4902237;29;20107;-83
2022/10/04 14:22:22;;;;;;;3.20;1.00;;;18.30;75.80;;;;;;4917754;29;20040;-83
2022/10/04 14:25:20;;;;;;;2.50;1.10;;;18.30;75.50;;;;;;4917980;29;20044;-86
2022/10/04 14:28:31;;;;;;;2.25;1.25;;;18.30;75.60;;;;;;4886502;29;20040;-86
2022/10/04 14:31:19;;;;;;;1.67;0.88;;;18.30;76.00;;;;;;4901838;29;20508;-85
2022/10/04 14:34:25;;;;;;;2.72;0.90;;;18.30;76.10;;;;;;4907165;29;20044;-86
2022/10/04 14:37:11;;;;;;;3.22;1.30;;;18.20;75.70;;;;;;4891317;29;20044;-83
2022/10/04 14:40:35;;;;;;;2.40;1.00;;;18.20;76.10;;;;;;4887165;29;20505;-83
2022/10/04 14:44:04;;;;;;;2.33;1.20;;;18.20;75.30;;;;;;4904393;29;20585;-82
2022/10/04 14:46:53;;;;;;;2.97;1.00;;;18.20;75.60;;;;;;4897816;29;20103;-83
2022/10/04 14:49:36;;;;;;;3.85;1.42;;;18.10;75.60;;;;;;4885711;29;20052;-83
2022/10/04 14:56:57;;;;;;;2.53;1.00;;;18.20;75.60;;;;;;4904462;29;20094;-82
2022/10/04 15:00:02;;;;;;;3.15;0.88;;;18.20;75.90;;;;;;4900101;29;20048;-84